sensor_id;sensor_type;location;lat;lon;timestamp;pressure;altitude;pressure_sealevel;temperature;humidity
85882;BME280;76395;51.392;21.182;2024-02-28T00:00:59;99405.09;;;13.00;69.44
85882;BME280;76395;51.392;21.182;2024-02-28T00:02:20;99402.47;;;13.08;69.42
85882;BME280;76395;51.392;21.182;2024-02-28T00:03:21;99400.63;;;13.08;69.18
85882;BME280;76395;51.392;21.182;2024-02-28T00:04:23;99407.63;;;13.09;69.47
85882;BME280;76395;51.392;21.182;2024-02-28T00:05:25;99408.59;;;13.08;68.92
85882;BME280;76395;51.392;21.182;2024-02-28T00:06:30;99408.28;;;13.11;69.44
85882;BME280;76395;51.392;21.182;2024-02-28T00:07:32;99408.47;;;13.10;68.82
85882;BME280;76395;51.392;21.182;2024-02-28T00:08:36;99409.63;;;13.07;69.26
85882;BME280;76395;51.392;21.182;2024-02-28T00:09:37;99403.63;;;13.05;68.95
85882;BME280;76395;51.392;21.182;2024-02-28T00:10:37;99412.94;;;13.09;68.91
85882;BME280;76395;51.392;21.182;2024-02-28T00:11:45;99417.28;;;13.02;69.24
85882;BME280;76395;51.392;21.182;2024-02-28T00:12:49;99416.09;;;13.05;69.10
85882;BME280;76395;51.392;21.182;2024-02-28T00:13:50;99409.13;;;13.04;69.21
85882;BME280;76395;51.392;21.182;2024-02-28T00:14:53;99407.94;;;13.06;69.05
85882;BME280;76395;51.392;21.182;2024-02-28T00:15:54;99412.63;;;13.04;69.02
85882;BME280;76395;51.392;21.182;2024-02-28T00:16:55;99408.28;;;13.03;68.89
85882;BME280;76395;51.392;21.182;2024-02-28T00:17:56;99412.09;;;13.01;69.11
85882;BME280;76395;51.392;21.182;2024-02-28T00:18:56;99412.22;;;12.99;69.24
85882;BME280;76395;51.392;21.182;2024-02-28T00:19:58;99412.41;;;12.98;69.57
85882;BME280;76395;51.392;21.182;2024-02-28T00:20:59;99420.72;;;12.95;69.34
85882;BME280;76395;51.392;21.182;2024-02-28T00:22:00;99412.22;;;12.99;69.18
85882;BME280;76395;51.392;21.182;2024-02-28T00:23:01;99411.09;;;13.02;69.29
85882;BME280;76395;51.392;21.182;2024-02-28T00:24:03;99419.03;;;12.94;69.88
85882;BME280;76395;51.392;21.182;2024-02-28T00:25:07;99416.41;;;13.02;69.83
85882;BME280;76395;51.392;21.182;2024-02-28T00:26:12;99418.09;;;13.03;69.44
85882;BME280;76395;51.392;21.182;2024-02-28T00:27:13;99415.13;;;13.06;69.07
85882;BME280;76395;51.392;21.182;2024-02-28T00:28:14;99413.25;;;13.06;68.88
85882;BME280;76395;51.392;21.182;2024-02-28T00:29:15;99411.63;;;13.05;69.54
85882;BME280;76395;51.392;21.182;2024-02-28T00:30:17;99407.94;;;13.06;69.20
85882;BME280;76395;51.392;21.182;2024-02-28T00:31:17;99410.47;;;13.08;69.43
85882;BME280;76395;51.392;21.182;2024-02-28T00:32:19;99410.28;;;13.09;69.39
85882;BME280;76395;51.392;21.182;2024-02-28T00:33:21;99410.28;;;13.09;69.14
85882;BME280;76395;51.392;21.182;2024-02-28T00:34:22;99411.94;;;13.10;69.23
85882;BME280;76395;51.392;21.182;2024-02-28T00:35:23;99415.28;;;13.12;68.90
85882;BME280;76395;51.392;21.182;2024-02-28T00:36:24;99410.63;;;13.14;68.90
85882;BME280;76395;51.392;21.182;2024-02-28T00:37:25;99411.97;;;13.02;69.21
85882;BME280;76395;51.392;21.182;2024-02-28T00:38:26;99423.59;;;13.09;69.42
85882;BME280;76395;51.392;21.182;2024-02-28T00:39:29;99416.28;;;13.11;69.09
85882;BME280;76395;51.392;21.182;2024-02-28T00:40:30;99422.94;;;13.15;69.10
85882;BME280;76395;51.392;21.182;2024-02-28T00:41:33;99425.59;;;13.07;69.23
85882;BME280;76395;51.392;21.182;2024-02-28T00:42:38;99426.25;;;13.09;69.17
85882;BME280;76395;51.392;21.182;2024-02-28T00:43:39;99422.41;;;13.12;69.14
85882;BME280;76395;51.392;21.182;2024-02-28T00:44:41;99426.59;;;13.14;68.86
85882;BME280;76395;51.392;21.182;2024-02-28T00:45:45;99424.94;;;13.13;69.07
85882;BME280;76395;51.392;21.182;2024-02-28T00:46:46;99424.59;;;13.16;68.57
85882;BME280;76395;51.392;21.182;2024-02-28T00:47:47;99421.25;;;13.14;69.04
85882;BME280;76395;51.392;21.182;2024-02-28T00:48:48;99413.94;;;13.16;68.88
85882;BME280;76395;51.392;21.182;2024-02-28T00:49:50;99418.25;;;13.17;68.73
85882;BME280;76395;51.392;21.182;2024-02-28T00:50:51;99415.28;;;13.12;69.09
85882;BME280;76395;51.392;21.182;2024-02-28T00:51:52;99415.78;;;13.08;69.32
85882;BME280;76395;51.392;21.182;2024-02-28T00:52:53;99417.09;;;13.12;68.87
85882;BME280;76395;51.392;21.182;2024-02-28T00:53:54;99414.59;;;13.10;69.10
85882;BME280;76395;51.392;21.182;2024-02-28T00:54:55;99421.59;;;13.11;69.08
85882;BME280;76395;51.392;21.182;2024-02-28T00:55:59;99417.44;;;13.09;69.04
85882;BME280;76395;51.392;21.182;2024-02-28T00:57:00;99424.28;;;13.11;69.30
85882;BME280;76395;51.392;21.182;2024-02-28T00:58:02;99418.94;;;13.11;69.04
85882;BME280;76395;51.392;21.182;2024-02-28T00:59:05;99420.91;;;13.17;68.81
85882;BME280;76395;51.392;21.182;2024-02-28T01:00:07;99422.94;;;13.15;68.89
85882;BME280;76395;51.392;21.182;2024-02-28T01:01:10;99424.59;;;13.16;69.14
85882;BME280;76395;51.392;21.182;2024-02-28T01:02:12;99421.75;;;13.18;68.83
85882;BME280;76395;51.392;21.182;2024-02-28T01:03:13;99420.91;;;13.17;68.76
85882;BME280;76395;51.392;21.182;2024-02-28T01:05:39;99425.09;;;13.20;68.79
85882;BME280;76395;51.392;21.182;2024-02-28T01:06:41;99411.09;;;13.18;69.05
85882;BME280;76395;51.392;21.182;2024-02-28T01:07:41;99420.91;;;13.17;68.79
85882;BME280;76395;51.392;21.182;2024-02-28T01:08:42;99420.28;;;13.15;69.03
85882;BME280;76395;51.392;21.182;2024-02-28T01:09:44;99425.25;;;13.18;68.50
85882;BME280;76395;51.392;21.182;2024-02-28T01:10:45;99426.91;;;13.19;68.48
85882;BME280;76395;51.392;21.182;2024-02-28T01:11:47;99430.75;;;13.17;68.93
85882;BME280;76395;51.392;21.182;2024-02-28T01:12:48;99434.41;;;13.16;68.83
85882;BME280;76395;51.392;21.182;2024-02-28T01:13:49;99417.44;;;13.17;68.64
85882;BME280;76395;51.392;21.182;2024-02-28T01:14:50;99423.44;;;13.19;68.53
85882;BME280;76395;51.392;21.182;2024-02-28T01:15:51;99416.59;;;13.16;68.91
85882;BME280;76395;51.392;21.182;2024-02-28T01:16:52;99419.94;;;13.18;69.01
85882;BME280;76395;51.392;21.182;2024-02-28T01:17:54;99418.63;;;13.23;68.99
85882;BME280;76395;51.392;21.182;2024-02-28T01:18:55;99419.94;;;13.18;68.56
85882;BME280;76395;51.392;21.182;2024-02-28T01:19:56;99427.56;;;13.21;68.67
85882;BME280;76395;51.392;21.182;2024-02-28T01:20:59;99419.59;;;13.21;68.59
85882;BME280;76395;51.392;21.182;2024-02-28T01:22:00;99425.94;;;13.20;68.37
85882;BME280;76395;51.392;21.182;2024-02-28T01:23:01;99420.78;;;13.19;68.89
85882;BME280;76395;51.392;21.182;2024-02-28T01:24:04;99420.25;;;13.23;68.40
85882;BME280;76395;51.392;21.182;2024-02-28T01:25:04;99417.94;;;13.20;68.30
85882;BME280;76395;51.392;21.182;2024-02-28T01:26:05;99415.28;;;13.20;67.92
85882;BME280;76395;51.392;21.182;2024-02-28T01:27:06;99411.59;;;13.21;68.78
85882;BME280;76395;51.392;21.182;2024-02-28T01:28:07;99416.09;;;13.21;68.29
85882;BME280;76395;51.392;21.182;2024-02-28T01:29:08;99415.28;;;13.20;68.81
85882;BME280;76395;51.392;21.182;2024-02-28T01:30:10;99418.13;;;13.19;68.46
85882;BME280;76395;51.392;21.182;2024-02-28T01:31:11;99420.28;;;13.15;68.72
85882;BME280;76395;51.392;21.182;2024-02-28T01:32:13;99420.94;;;13.09;68.65
85882;BME280;76395;51.392;21.182;2024-02-28T01:33:14;99416.28;;;13.11;68.71
85882;BME280;76395;51.392;21.182;2024-02-28T01:34:16;99418.78;;;13.13;68.54
85882;BME280;76395;51.392;21.182;2024-02-28T01:35:17;99417.94;;;13.12;68.47
85882;BME280;76395;51.392;21.182;2024-02-28T01:36:18;99418.09;;;13.11;68.72
85882;BME280;76395;51.392;21.182;2024-02-28T01:37:20;99423.75;;;13.16;68.72
85882;BME280;76395;51.392;21.182;2024-02-28T01:38:21;99425.59;;;13.15;68.43
85882;BME280;76395;51.392;21.182;2024-02-28T01:39:23;99423.75;;;13.16;68.33
85882;BME280;76395;51.392;21.182;2024-02-28T01:40:23;99423.25;;;13.12;68.41
85882;BME280;76395;51.392;21.182;2024-02-28T01:41:24;99420.41;;;13.14;68.44
85882;BME280;76395;51.392;21.182;2024-02-28T01:42:26;99420.28;;;13.15;68.47
85882;BME280;76395;51.392;21.182;2024-02-28T01:43:28;99418.78;;;13.13;68.30
85882;BME280;76395;51.392;21.182;2024-02-28T01:44:30;99421.09;;;13.16;68.36
85882;BME280;76395;51.392;21.182;2024-02-28T01:45:30;99416.94;;;13.13;68.80
85882;BME280;76395;51.392;21.182;2024-02-28T01:46:31;99416.28;;;13.11;68.96
85882;BME280;76395;51.392;21.182;2024-02-28T01:47:33;99415.44;;;13.11;68.75
85882;BME280;76395;51.392;21.182;2024-02-28T01:48:34;99415.28;;;13.12;69.01
85882;BME280;76395;51.392;21.182;2024-02-28T01:49:35;99416.09;;;13.13;68.46
85882;BME280;76395;51.392;21.182;2024-02-28T01:50:36;99414.28;;;13.13;68.85
85882;BME280;76395;51.392;21.182;2024-02-28T01:51:38;99419.25;;;13.08;68.60
85882;BME280;76395;51.392;21.182;2024-02-28T01:52:39;99412.44;;;13.06;69.23
85882;BME280;76395;51.392;21.182;2024-02-28T01:53:43;99410.78;;;13.05;68.51
85882;BME280;76395;51.392;21.182;2024-02-28T01:54:48;99412.09;;;13.09;68.73
85882;BME280;76395;51.392;21.182;2024-02-28T01:55:49;99410.63;;;13.14;68.78
85882;BME280;76395;51.392;21.182;2024-02-28T01:56:50;99406.78;;;13.17;68.77
85882;BME280;76395;51.392;21.182;2024-02-28T01:57:52;99412.44;;;13.14;68.56
85882;BME280;76395;51.392;21.182;2024-02-28T01:58:54;99415.09;;;13.14;68.41
85882;BME280;76395;51.392;21.182;2024-02-28T01:59:55;99418.13;;;13.19;68.90
